Terminal Aerodrome Forecast
Issued by NWS

Home | Current Version | Previous Version | Text Only | Print | Product List | Glossary On
Versions: 1 2 3 4 5 6 7 8 9 10 11 12 13 14 15 16 17 18 19 20 21 22 23
000
FTUS43 KPAH 182300
TAFCGI
TAF
KCGI 182339Z 1900/1924 06003KT P6SM SCT050
     FM190700 00000KT 4SM BR SKC
      TEMPO 1908/1912 1SM BR
     FM191400 10004KT P6SM SCT040=

USA.gov is the U.S. government's official web portal to all federal, state and local government web resources and services.